• Join FlightAware (Why Join?)
  • Login
  • US Flag 
06:51PM EST


 

Airport Tracker/Info


-or-


 

Live Flight TrackerFlight Track Log ✈ N55620 ✈ 24-Oct-2012 ✈ KDLZ - 1H0

Flight Track Log - Related Links

Times and Time Zones

All times are in EDT time to prevent confusion due to time zone crossing. See the N55620 flight status page for this flight to view local times or setup timezone preferences in your user account.

Time Position Orientation Groundspeed Altitude Reporting Facility
EDT Latitude Longitude Course Direction KTS MPH feet Rate Location/Type
06:59PM 40.2671 -83.1813 255° West  Level FlightAware Approximate
07:00PM 40.2563 -83.2354 255° West  Level FlightAware Approximate
07:01PM 40.2431 -83.3017 255° West  Level FlightAware Approximate
07:02PM 40.2299 -83.3679 255° West  Level FlightAware Approximate
07:03PM 40.2166 -83.4342 255° West  Level FlightAware Approximate
07:04PM 40.2298 -83.3684 255° West  Level FlightAware Approximate
07:05PM 40.2181 -83.4347 255° West  Level Estimated
07:06PM 40.2037 -83.5000 255° West  Level FlightAware Approximate
07:07PM 40.1892 -83.5653 255° West  Level FlightAware Approximate
07:08PM 40.2037 -83.5000 255° West  Level FlightAware Approximate
07:09PM 40.1892 -83.5653 255° West  Level FlightAware Approximate
07:10PM 40.2026 -83.5000 255° West  Level FlightAware Approximate
07:11PM 40.1909 -83.5658 255° West  Level Estimated
07:12PM 40.2030 -83.5001 255° West  Level FlightAware Approximate
07:13PM 40.1909 -83.5658 255° West  Level FlightAware Approximate
07:14PM 40.2030 -83.5001 255° West  Level FlightAware Approximate
07:15PM 40.1909 -83.5658 255° West  Level FlightAware Approximate
07:16PM 40.2038 -83.5011 255° West  Level FlightAware Approximate
07:17PM 40.1923 -83.5663 255° West  Level Estimated
07:18PM 40.2025 -83.5007 255° West  Level FlightAware Approximate
07:19PM 40.1923 -83.5663 255° West  Level FlightAware Approximate
07:20PM 40.2025 -83.5007 255° West  Level FlightAware Approximate
07:21PM 40.2155 -83.4366 255° West  Level FlightAware Approximate
07:22PM 40.2041 -83.5013 255° West  Level Estimated
07:23PM 40.1874 -83.5639 255° West  Level FlightAware Approximate
07:24PM 40.2041 -83.5013 255° West  Level FlightAware Approximate
07:25PM 40.1874 -83.5639 255° West  Level FlightAware Approximate
07:26PM 40.2041 -83.5013 255° West  Level FlightAware Approximate
07:27PM 40.1935 -83.5527 255° West  Level FlightAware Approximate
07:28PM 40.1818 -83.6173 255° West  Level FlightAware Approximate
07:29PM 40.1701 -83.6819 255° West  Level FlightAware Approximate
07:30PM 40.1584 -83.7464 255° West  Level FlightAware Approximate
07:31PM 40.1672 -83.7012 255° West  Level FlightAware Approximate
07:32PM 40.1591 -83.7467 255° West  Level Estimated
07:33PM 40.1672 -83.7012 255° West  Level FlightAware Approximate
07:34PM 40.1753 -83.6558 255° West  Level FlightAware Approximate
07:35PM 40.1834 -83.6104 255° West  Level FlightAware Approximate
07:36PM 40.1914 -83.5649 255° West  Level FlightAware Approximate
07:37PM 40.1995 -83.5195 255° West  Level FlightAware Approximate
07:38PM 40.2076 -83.4740 255° West  Level FlightAware Approximate
07:39PM 40.1995 -83.5195 255° West  Level FlightAware Approximate
07:40PM 40.1932 -83.5546 255° West  Level FlightAware Approximate
07:41PM 40.1850 -83.6000 255° West  Level FlightAware Approximate
07:42PM 40.1767 -83.6454 255° West  Level FlightAware Approximate
07:43PM 40.1685 -83.6908 255° West  Level FlightAware Approximate
07:44PM 40.1603 -83.7362 255° West  Level FlightAware Approximate
07:45PM 40.1520 -83.7816 255° West  Level FlightAware Approximate
07:46PM 40.1437 -83.8269 255° West  Level FlightAware Approximate
07:46PM 39.2725 -87.6250 253° West 134 154 4,400  Level Kansas City Center
07:47PM 40.1354 -83.8723 255° West  Level FlightAware Approximate
07:47PM 39.2658 -87.6525 265° West 85 98 4,400  Level Kansas City Center
07:48PM 40.1270 -83.9176 255° West  Level FlightAware Approximate
07:48PM 39.2636 -87.6850 269° West 85 98 4,400  Level Kansas City Center
07:49PM 40.1187 -83.9629 255° West  Level FlightAware Approximate
07:49PM 39.2631 -87.7144 257° West 85 98 4,400  Level Kansas City Center
07:50PM 40.1104 -84.0082 255° West  Level FlightAware Approximate
07:50PM 39.2583 -87.7417 254° West 85 98 4,500  Level Kansas City Center
07:51PM 40.1020 -84.0535 255° West  Level FlightAware Approximate
07:51PM 39.2517 -87.7719 263° West 85 98 4,500  Level Kansas City Center
07:52PM 39.2492 -87.7989 249° West 85 98 4,500 -60 Level Kansas City Center
07:53PM 39.2403 -87.8292 264° West 90 104 4,400 -60 Descending Kansas City Center
07:54PM 39.2378 -87.8589 290° West 90 104 4,400  Level Kansas City Center
07:55PM 39.2458 -87.8878 282° West 90 104 4,400  Level Kansas City Center
07:56PM 39.2519 -87.9247 283° West 90 104 4,400  Level Kansas City Center
07:57PM 39.2581 -87.9589 291° West 90 104 4,400  Level Kansas City Center
07:58PM 39.2658 -87.9850 283° West 90 104 4,500  Climbing Kansas City Center
07:59PM 39.2717 -88.0167 283° West 90 104 4,400 -60 Descending Kansas City Center
08:00PM 39.2775 -88.0483 274° West 90 104 4,400  Level Kansas City Center
08:01PM 39.2792 -88.0778 278° West 90 104 4,500  Climbing Kansas City Center
08:02PM 39.2828 -88.1097 269° West 90 104 4,500  Level Kansas City Center
08:03PM 39.2825 -88.1419 274° West 85 98 4,500 -60 Level Kansas City Center
08:04PM 39.2839 -88.1686 269° West 85 98 4,400 -60 Descending Kansas City Center
08:05PM 39.2836 -88.2008 268° West 85 98 4,400  Level Kansas City Center
08:06PM 39.2828 -88.2275 260° West 85 98 4,500  Climbing Kansas City Center
08:07PM 39.2783 -88.2603 268° West 85 98 4,400 -60 Descending Kansas City Center
08:08PM 39.2778 -88.2872 253° West 85 98 4,400  Level Kansas City Center
08:09PM 39.2708 -88.3172 254° West 85 98 4,400  Level Kansas City Center
08:10PM 39.2642 -88.3472 253° West 85 98 4,400  Level Kansas City Center
08:11PM 39.2589 -88.3692 225° Southwest 85 98 4,400  Level Kansas City Center
08:12PM 39.2433 -88.3892 213° Southwest 85 98 4,400  Level Kansas City Center
08:13PM 39.2292 -88.4011 225° Southwest 75 86 4,400  Level Kansas City Center
08:14PM 39.2136 -88.4211 274° West 75 86 4,400  Level Kansas City Center
08:15PM 39.2153 -88.4533 279° West 75 86 4,400  Level Kansas City Center
08:16PM 39.2186 -88.4797 283° West 75 86 4,400  Level Kansas City Center
08:17PM 39.2244 -88.5114 279° West 86 99 4,400  Level Kansas City Center
08:18PM 39.2281 -88.5406 278° West 86 99 4,400  Level Kansas City Center
08:19PM 39.2319 -88.5753 241° Southwest 86 99 4,400  Level Kansas City Center
08:20PM 39.2225 -88.5975 242° Southwest 81 93 4,400  Level Kansas City Center
08:21PM 39.2114 -88.6250 240° Southwest 81 93 4,400  Level Kansas City Center
08:22PM 39.2039 -88.6419 242° Southwest 81 93 4,400  Level Kansas City Center
08:23PM 39.1928 -88.6694 246° West 81 93 4,400  Level Kansas City Center
08:24PM 39.1853 -88.6917 244° Southwest 81 93 4,400  Level Kansas City Center
08:25PM 39.1781 -88.7108 241° Southwest 81 93 4,400 -960 Level Kansas City Center
08:26PM 39.1686 -88.7331 238° Southwest 81 93 2,500 -960 Descending Kansas City Center
08:27PM 39.1592 -88.7525 241° Southwest 81 93 2,500  Level Kansas City Center
08:28PM 39.1497 -88.7747 237° Southwest 81 93 2,500  Level Kansas City Center
08:29PM 39.1442 -88.7858 360° North 81 93 2,500  Level Kansas City Center
08:31PM 39.1442 -88.7858 360° North 81 93 2,500  Level Kansas City Center
08:33PM 39.1442 -88.7858 246° West 81 93 2,500  Level Kansas City Center
08:34PM 39.0392 -89.0856 37° Northeast 81 93 2,500 660 Level Kansas City Center
08:36PM 39.1331 -88.9956 261° West 131 151 4,500 660 Climbing Kansas City Center
08:37PM 39.1300 -89.0197 258° West 92 106 4,500 -60 Level Kansas City Center
08:38PM 39.1250 -89.0497 261° West 92 106 4,400 -60 Descending Kansas City Center
08:39PM 39.1219 -89.0739 245° Southwest 79 91 4,400  Level Kansas City Center
08:40PM 39.1128 -89.0989 254° West 73 84 4,400  Level Kansas City Center
08:41PM 39.1075 -89.1233 247° West 73 84 4,400  Level Kansas City Center
08:42PM 39.0983 -89.1506 217° Southwest 73 84 4,400 -60 Level Kansas City Center
08:43PM 39.0864 -89.1622 240° Southwest 73 84 4,300  Descending Kansas City Center
08:44PM 39.0750 -89.1872 96° East 73 84 4,400  Climbing Kansas City Center
08:45PM 39.0714 -89.1442 265° West 74 85 4,300 -120 Descending FAA TRACON SMA TRACON (SMA)
08:45PM 39.0708 -89.1522 234° Southwest 72 83 4,300  Level FAA TRACON SMA TRACON (SMA)
08:46PM 39.0672 -89.1586 262° West 69 79 4,300  Level FAA TRACON SMA TRACON (SMA)
08:46PM 39.0661 -89.1689 263° West 74 85 4,300  Level FAA TRACON SMA TRACON (SMA)
08:46PM 39.0653 -89.1775 252° West 77 89 4,300  Level FAA TRACON SMA TRACON (SMA)
08:47PM 39.0633 -89.1850 249° West 73 84 4,300  Level FAA TRACON SMA TRACON (SMA)
08:47PM 39.0606 -89.1942 265° West 70 81 4,300  Level FAA TRACON SMA TRACON (SMA)
08:47PM 39.0600 -89.2025 262° West 75 86 4,300  Level FAA TRACON SMA TRACON (SMA)
08:48PM 39.0592 -89.2106 252° West 75 86 4,300  Level FAA TRACON SMA TRACON (SMA)
08:48PM 39.0567 -89.2203 250° West 74 85 4,300  Level FAA TRACON SMA TRACON (SMA)
08:48PM 39.0547 -89.2272 237° Southwest 69 79 4,300  Level FAA TRACON SMA TRACON (SMA)
08:49PM 39.0514 -89.2339 240° Southwest 70 81 4,300  Level FAA TRACON SMA TRACON (SMA)
08:49PM 39.0475 -89.2425 250° West 74 85 4,300  Level FAA TRACON SMA TRACON (SMA)
08:49PM 39.0453 -89.2506 250° West 76 87 4,300  Level FAA TRACON SMA TRACON (SMA)
08:50PM 39.0431 -89.2583 251° West 76 87 4,300  Level FAA TRACON SMA TRACON (SMA)
08:50PM 39.0406 -89.2678 250° West 74 85 4,300  Level FAA TRACON SMA TRACON (SMA)
08:50PM 39.0383 -89.2758 250° West 75 86 4,300  Level FAA TRACON SMA TRACON (SMA)
08:51PM 39.0361 -89.2839 249° West 78 90 4,300  Level FAA TRACON SMA TRACON (SMA)
08:51PM 39.0333 -89.2933 216° Southwest 74 85 4,300  Level FAA TRACON SMA TRACON (SMA)
08:51PM 39.0275 -89.2989 240° Southwest 77 89 4,300  Level FAA TRACON SMA TRACON (SMA)
08:52PM 39.0244 -89.3058 250° West 77 89 4,300  Level FAA TRACON SMA TRACON (SMA)
08:52PM 39.0217 -89.3158 251° West 76 87 4,300  Level FAA TRACON SMA TRACON (SMA)
08:52PM 39.0197 -89.3231 238° Southwest 74 85 4,300  Level FAA TRACON SMA TRACON (SMA)
08:53PM 39.0164 -89.3300 270° West 71 82 4,300  Level FAA TRACON SMA TRACON (SMA)
08:53PM 39.0164 -89.3403 253° West 73 84 4,300  Level FAA TRACON SMA TRACON (SMA)
08:53PM 39.0144 -89.3483 260° West 75 86 4,300  Level FAA TRACON SMA TRACON (SMA)
08:54PM 39.0133 -89.3564 258° West 74 85 4,300 120 Level FAA TRACON SMA TRACON (SMA)
08:54PM 39.0117 -89.3667 265° West 75 86 4,400  Climbing FAA TRACON SMA TRACON (SMA)
08:54PM 39.0111 -89.3747 260° West 76 87 4,300 -180 Descending FAA TRACON SMA TRACON (SMA)
08:55PM 39.0100 -89.3831 280° West 79 91 4,300  Level FAA TRACON SMA TRACON (SMA)
08:55PM 39.0117 -89.3947 281° West 83 96 4,300 120 Level FAA TRACON SMA TRACON (SMA)
08:55PM 39.0131 -89.4036 272° West 85 98 4,400 120 Climbing FAA TRACON SMA TRACON (SMA)
08:56PM 39.0133 -89.4119 266° West 80 92 4,400  Level FAA TRACON SMA TRACON (SMA)
08:56PM 39.0128 -89.4222 260° West 75 86 4,400  Level FAA TRACON SMA TRACON (SMA)
08:56PM 39.0117 -89.4300 250° West 73 84 4,400  Level FAA TRACON SMA TRACON (SMA)
08:57PM 39.0094 -89.4378 259° West 73 84 4,400  Level FAA TRACON SMA TRACON (SMA)
08:57PM 39.0081 -89.4472 237° Southwest 72 83 4,400  Level FAA TRACON SMA TRACON (SMA)
08:57PM 39.0047 -89.4539 251° West 71 82 4,400  Level FAA TRACON SMA TRACON (SMA)
08:58PM 39.0028 -89.4611 248° West 70 81 4,400 120 Level FAA TRACON SMA TRACON (SMA)
08:58PM 39.0000 -89.4700 238° Southwest 69 79 4,500 120 Climbing FAA TRACON SMA TRACON (SMA)
08:58PM 38.9969 -89.4764 248° West 68 78 4,500  Level FAA TRACON SMA TRACON (SMA)
08:59PM 38.9950 -89.4825 219° Southwest 65 75 4,500  Level FAA TRACON SMA TRACON (SMA)
08:59PM 38.9886 -89.4892 225° Southwest 69 79 4,500 -180 Level FAA TRACON SMA TRACON (SMA)
08:59PM 38.9847 -89.4942 220° Southwest 70 81 4,400 -180 Descending FAA TRACON SMA TRACON (SMA)
09:00PM 38.9803 -89.4989 232° Southwest 69 79 4,400  Level FAA TRACON SMA TRACON (SMA)
09:00PM 38.9756 -89.5067 231° Southwest 71 82 4,400  Level FAA TRACON SMA TRACON (SMA)
09:00PM 38.9717 -89.5128 234° Southwest 71 82 4,400  Level FAA TRACON SMA TRACON (SMA)
09:01PM 38.9675 -89.5203 232° Southwest 69 79 4,400 -180 Level FAA TRACON SMA TRACON (SMA)
09:01PM 38.9636 -89.5267 219° Southwest 73 84 4,300 -180 Descending FAA TRACON SMA TRACON (SMA)
09:01PM 38.9589 -89.5317 231° Southwest 70 81 4,300  Level FAA TRACON SMA TRACON (SMA)
09:02PM 38.9550 -89.5378 221° Southwest 70 81 4,300  Level FAA TRACON SMA TRACON (SMA)
09:02PM 38.9494 -89.5439 226° Southwest 72 83 4,300  Level FAA TRACON SMA TRACON (SMA)
09:02PM 38.9458 -89.5486 206° Southwest 67 77 4,300  Level FAA TRACON SMA TRACON (SMA)
09:03PM 38.9397 -89.5525 225° Southwest 70 81 4,300  Level FAA TRACON SMA TRACON (SMA)
09:03PM 38.9350 -89.5586 220° Southwest 66 76 4,300  Level FAA TRACON SMA TRACON (SMA)
09:03PM 38.9308 -89.5631 216° Southwest 64 74 4,300  Level FAA TRACON SMA TRACON (SMA)
09:04PM 38.9261 -89.5675 218° Southwest 68 78 4,300 120 Level FAA TRACON SMA TRACON (SMA)
09:04PM 38.9208 -89.5728 207° Southwest 65 75 4,400 120 Climbing FAA TRACON SMA TRACON (SMA)
09:04PM 38.9158 -89.5761 212° Southwest 64 74 4,400  Level FAA TRACON SMA TRACON (SMA)
09:05PM 38.9100 -89.5808 204° Southwest 62 71 4,400 120 Level FAA TRACON SMA TRACON (SMA)
09:05PM 38.9056 -89.5833 192° South 61 70 4,500 120 Climbing FAA TRACON SMA TRACON (SMA)
09:05PM 38.8994 -89.5850 220° Southwest 64 74 4,500 -180 Level FAA TRACON SMA TRACON (SMA)
09:06PM 38.8956 -89.5892 255° West 67 77 4,400 -180 Descending FAA TRACON SMA TRACON (SMA)
09:06PM 38.8933 -89.5997 256° West 78 90 4,400  Level FAA TRACON SMA TRACON (SMA)
09:06PM 38.8917 -89.6081 277° West 80 92 4,400  Level FAA TRACON SMA TRACON (SMA)
09:07PM 38.8925 -89.6172 279° West 82 94 4,400  Level FAA TRACON SMA TRACON (SMA)
09:07PM 38.8939 -89.6286 276° West 83 96 4,400  Level FAA TRACON SMA TRACON (SMA)
09:07PM 38.8947 -89.6381 277° West 85 98 4,400  Level FAA TRACON SMA TRACON (SMA)
09:08PM 38.8956 -89.6467 275° West 84 97 4,400  Level FAA TRACON SMA TRACON (SMA)
09:08PM 38.8964 -89.6583 283° West 85 98 4,400  Level FAA TRACON SMA TRACON (SMA)
09:08PM 38.8981 -89.6675 281° West 87 100 4,400  Level FAA TRACON SMA TRACON (SMA)
09:09PM 38.8994 -89.6764 286° West 84 97 4,400  Level FAA TRACON SMA TRACON (SMA)
09:09PM 38.9019 -89.6878 276° West 85 98 4,400 -180 Level FAA TRACON SMA TRACON (SMA)
09:09PM 38.9028 -89.6972 275° West 87 100 4,300  Descending FAA TRACON SMA TRACON (SMA)
09:10PM 38.9033 -89.7061 274° West 85 98 4,400 120 Climbing FAA TRACON SMA TRACON (SMA)
09:10PM 38.9039 -89.7172 265° West 81 93 4,400  Level FAA TRACON SMA TRACON (SMA)
09:10PM 38.9033 -89.7256 265° West 77 89 4,400  Level FAA TRACON SMA TRACON (SMA)
09:11PM 38.9028 -89.7342 268° West 78 90 4,400  Level FAA TRACON SMA TRACON (SMA)
09:11PM 38.9025 -89.7450 263° West 80 92 4,400  Level FAA TRACON SMA TRACON (SMA)
09:11PM 38.9017 -89.7533 258° West 77 89 4,400  Level FAA TRACON SMA TRACON (SMA)
09:12PM 38.9003 -89.7619 243° Southwest 78 90 4,400  Level FAA TRACON SMA TRACON (SMA)
09:12PM 38.8969 -89.7703 245° Southwest 71 82 4,400  Level FAA TRACON SMA TRACON (SMA)
09:12PM 38.8944 -89.7772 245° Southwest 70 81 4,400  Level FAA TRACON SMA TRACON (SMA)
09:13PM 38.8917 -89.7847 253° West 72 83 4,400  Level FAA TRACON SMA TRACON (SMA)
09:13PM 38.8894 -89.7942 248° West 74 85 4,400  Level FAA TRACON SMA TRACON (SMA)
09:13PM 38.8872 -89.8014 265° West 72 83 4,400  Level FAA TRACON SMA TRACON (SMA)
09:14PM 38.8867 -89.8097 258° West 74 85 4,400  Level FAA TRACON SMA TRACON (SMA)
09:14PM 38.8850 -89.8200 263° West 77 89 4,400  Level FAA TRACON SMA TRACON (SMA)
09:14PM 38.8842 -89.8283 263° West 78 90 4,400  Level FAA TRACON SMA TRACON (SMA)
09:15PM 38.8833 -89.8367 251° West 76 87 4,400  Level FAA TRACON SMA TRACON (SMA)
09:15PM 38.8806 -89.8469 256° West 77 89 4,400 -180 Level FAA TRACON SMA TRACON (SMA)
09:15PM 38.8789 -89.8553 233° Southwest 78 90 4,300 -180 Descending FAA TRACON SMA TRACON (SMA)
09:16PM 38.8750 -89.8619 237° Southwest 78 90 4,300  Level FAA TRACON SMA TRACON (SMA)
09:16PM 38.8708 -89.8703 235° Southwest 76 87 4,300 120 Level FAA TRACON SMA TRACON (SMA)
09:16PM 38.8672 -89.8769 229° Southwest 72 83 4,400 120 Climbing FAA TRACON SMA TRACON (SMA)
09:17PM 38.8631 -89.8831 244° Southwest 72 83 4,400  Level FAA TRACON SMA TRACON (SMA)
09:17PM 38.8597 -89.8917 235° Southwest 72 83 4,400  Level FAA TRACON SMA TRACON (SMA)
09:17PM 38.8561 -89.8983 238° Southwest 73 84 4,400  Level FAA TRACON SMA TRACON (SMA)
09:18PM 38.8528 -89.9053 240° Southwest 76 87 4,400 -180 Level FAA TRACON SMA TRACON (SMA)
09:18PM 38.8489 -89.9139 238° Southwest 75 86 4,300 -180 Descending FAA TRACON SMA TRACON (SMA)
09:18PM 38.8456 -89.9208 233° Southwest 78 90 4,300  Level FAA TRACON SMA TRACON (SMA)
09:19PM 38.8417 -89.9275 263° West 74 85 4,300  Level FAA TRACON SMA TRACON (SMA)
09:19PM 38.8406 -89.9386 282° West 83 96 4,300  Level FAA TRACON SMA TRACON (SMA)
09:19PM 38.8419 -89.9469 279° West 81 93 4,300  Level FAA TRACON SMA TRACON (SMA)
09:20PM 38.8431 -89.9561 284° West 84 97 4,300  Level FAA TRACON SMA TRACON (SMA)
09:20PM 38.8453 -89.9675 284° West 83 96 4,300  Level FAA TRACON SMA TRACON (SMA)
09:21PM 38.8486 -89.9847 282° West 82 94 4,300  Level FAA TRACON SMA TRACON (SMA)
09:21PM 38.8506 -89.9964 278° West 84 97 4,300  Level FAA TRACON SMA TRACON (SMA)
09:21PM 38.8514 -90.0042 282° West 78 90 4,300 120 Level FAA TRACON SMA TRACON (SMA)
09:22PM 38.8528 -90.0128 279° West 79 91 4,400 120 Climbing FAA TRACON SMA TRACON (SMA)
09:22PM 38.8542 -90.0236 277° West 79 91 4,400  Level FAA TRACON SMA TRACON (SMA)
09:22PM 38.8550 -90.0319 280° West 78 90 4,400  Level FAA TRACON SMA TRACON (SMA)
09:23PM 38.8564 -90.0422 279° West 79 91 4,400  Level FAA TRACON SMA TRACON (SMA)
09:23PM 38.8575 -90.0514 277° West 81 93 4,400  Level FAA TRACON SMA TRACON (SMA)
09:23PM 38.8583 -90.0600 255° West 80 92 4,400  Level FAA TRACON SMA TRACON (SMA)
09:24PM 38.8567 -90.0678 254° West 77 89 4,400  Level FAA TRACON SMA TRACON (SMA)
09:24PM 38.8544 -90.0778 253° West 75 86 4,400  Level FAA TRACON SMA TRACON (SMA)
09:24PM 38.8525 -90.0858 246° West 76 87 4,400  Level FAA TRACON SMA TRACON (SMA)
09:25PM 38.8500 -90.0931 242° Southwest 72 83 4,400  Level FAA TRACON SMA TRACON (SMA)
09:25PM 38.8464 -90.1017 237° Southwest 71 82 4,400  Level FAA TRACON SMA TRACON (SMA)
09:25PM 38.8425 -90.1094 237° Southwest 70 81 4,400  Level FAA TRACON SMA TRACON (SMA)
09:26PM 38.8400 -90.1144 238° Southwest 70 81 4,400  Level FAA TRACON SMA TRACON (SMA)
09:26PM 38.8358 -90.1231 238° Southwest 73 84 4,400  Level FAA TRACON SMA TRACON (SMA)
09:26PM 38.8328 -90.1294 240° Southwest 72 83 4,400  Level FAA TRACON SMA TRACON (SMA)
09:27PM 38.8297 -90.1361 242° Southwest 71 82 4,400 -180 Level FAA TRACON SMA TRACON (SMA)
09:27PM 38.8261 -90.1450 235° Southwest 74 85 4,300 -180 Descending FAA TRACON SMA TRACON (SMA)
09:27PM 38.8225 -90.1517 245° Southwest 74 85 4,300  Level FAA TRACON SMA TRACON (SMA)
09:28PM 38.8200 -90.1586 240° Southwest 72 83 4,300  Level FAA TRACON SMA TRACON (SMA)
09:28PM 38.8161 -90.1672 241° Southwest 72 83 4,300  Level FAA TRACON SMA TRACON (SMA)
09:28PM 38.8128 -90.1750 248° West 78 90 4,300 -180 Level FAA TRACON SMA TRACON (SMA)
09:29PM 38.8103 -90.1828 245° Southwest 79 91 4,200 -480 Descending FAA TRACON SMA TRACON (SMA)
09:29PM 38.8067 -90.1925 249° West 79 91 4,000 -300 Descending FAA TRACON SMA TRACON (SMA)
09:29PM 38.8042 -90.2008 238° Southwest 80 92 4,000 -300 Level FAA TRACON SMA TRACON (SMA)
09:30PM 38.8008 -90.2078 240° Southwest 76 87 3,800 -300 Descending FAA TRACON SMA TRACON (SMA)
09:30PM 38.7967 -90.2169 242° Southwest 76 87 3,800 -180 Level FAA TRACON SMA TRACON (SMA)
09:30PM 38.7936 -90.2244 246° West 78 90 3,700 -300 Descending FAA TRACON SMA TRACON (SMA)
09:31PM 38.7911 -90.2317 246° West 75 86 3,600 -300 Descending FAA TRACON SMA TRACON (SMA)
09:31PM 38.7878 -90.2414 248° West 76 87 3,500 -180 Descending FAA TRACON SMA TRACON (SMA)
09:31PM 38.7853 -90.2492 250° West 76 87 3,500  Level FAA TRACON SMA TRACON (SMA)
09:32PM 38.7831 -90.2569 251° West 75 86 3,500 -180 Level FAA TRACON SMA TRACON (SMA)
09:32PM 38.7806 -90.2664 249° West 75 86 3,400 -180 Descending FAA TRACON SMA TRACON (SMA)
09:32PM 38.7783 -90.2739 237° Southwest 74 85 3,400  Level FAA TRACON SMA TRACON (SMA)
09:33PM 38.7750 -90.2806 230° Southwest 72 83 3,400  Level FAA TRACON SMA TRACON (SMA)
09:33PM 38.7703 -90.2878 226° Southwest 68 78 3,400  Level FAA TRACON SMA TRACON (SMA)
09:33PM 38.7667 -90.2925 227° Southwest 64 74 3,400 120 Level FAA TRACON SMA TRACON (SMA)
09:34PM 38.7631 -90.2975 226° Southwest 62 71 3,500 120 Climbing FAA TRACON SMA TRACON (SMA)
09:34PM 38.7581 -90.3042 229° Southwest 63 72 3,500  Level FAA TRACON SMA TRACON (SMA)
09:34PM 38.7544 -90.3094 231° Southwest 64 74 3,500  Level FAA TRACON SMA TRACON (SMA)
09:35PM 38.7511 -90.3147 232° Southwest 65 75 3,500  Level FAA TRACON SMA TRACON (SMA)
09:35PM 38.7467 -90.3219 232° Southwest 64 74 3,500  Level FAA TRACON SMA TRACON (SMA)
09:35PM 38.7442 -90.3261 360° North 65 75 3,500  Level FAA TRACON SMA TRACON (SMA)
09:36PM 38.7442 -90.3261 253° West 65 75 3,500 -240 Level FAA TRACON SMA TRACON (SMA)
09:36PM 38.7356 -90.3617 268° West 74 85 3,300 -300 Descending FAA TRACON SMA TRACON (SMA)
09:37PM 38.7353 -90.3700 255° West 77 89 3,200 -480 Descending FAA TRACON SMA TRACON (SMA)
09:37PM 38.7336 -90.3778 268° West 76 87 3,000 -1,080 Descending FAA TRACON SMA TRACON (SMA)
09:37PM 38.7333 -90.3883 270° West 75 86 2,500 -1,200 Descending FAA TRACON SMA TRACON (SMA)
09:38PM 38.7333 -90.3967 264° West 76 87 2,200 -780 Descending FAA TRACON SMA TRACON (SMA)
09:38PM 38.7328 -90.4039 254° West 70 81 2,000 -1,080 Descending FAA TRACON SMA TRACON (SMA)
09:38PM 38.7308 -90.4125 230° Southwest 67 77 1,500 -1,080 Descending FAA TRACON SMA TRACON (SMA)
09:39PM 38.7278 -90.4172 242° Southwest 61 70 1,300 -780 Descending FAA TRACON SMA TRACON (SMA)
09:39PM 38.7253 -90.4233 234° Southwest 61 70 1,000 -1,080 Descending FAA TRACON SMA TRACON (SMA)
09:39PM 38.7214 -90.4303 360° North 63 72 600 -600 Descending FAA TRACON SMA TRACON (SMA)
09:40PM 38.7214 -90.4303 360° North 63 72 600  Level FAA TRACON SMA TRACON (SMA)